Canden, North Carolina
Current Conditions -  °F | °C
As of 10:21 AM on Monday 22 Dec 2014 (Local Time) from KHFF Reporting Station
Haze Haze  
Wind Chill: 36°   Ceiling: 500
Heat Index: 41°   Visibility: 4mi
Dew Point: 39°   Wind: 7mph
Humidity: 93%   Direction: 30°NNE
Pressure: 30.13"   Gusts: NA
Location:  35.2241°N, 79.7861°W
Report Text: KHFF 221521Z AUTO 03006KT 4SM BR OVC005 05/04 A3013 RMK AO2
Loading
Personal Weather Stations






























Interactive Weather Map New forecast layout! Learn more

10-Day Weather Forecast

Advertisements
Track Severe Weather on mobile